EZS83LF LSGG-UGTB
Flight info
| Callsign | EZS83LF |
|---|---|
| Flight time | 4h 1m |
| Altitude | 35000 |
| Route | MEDAM DCT NITAM DCT MOGBO DCT KODOK DCT TOP DCT LABIN/N0447F370 DCT ULPIN DCT ELTIB DCT MITNO DCT TORTO DCT RAMAP DCT GINAM DCT AZBUX DCT NISVA DCT RIXEN UA17 YAVRU UA4 BUK UW71 TBN UN61 NOLGA N61 LAGAS |
| Aircraft | A320/M-SDE3FGHIRWY/LB1 |
Departure
| Time | 2026-04-20 04:42 |
|---|---|
| Airport | Geneva International Airport (LSGG) |
Arrival
| Time | 2026-04-20 08:44 |
|---|---|
| Airport | Tbilisi International Airport (UGTB) |
| Time | Latitude | Longitude | Altitude | Speed | Heading |
|---|---|---|---|---|---|
| 2026-04-20 04:21 | 46.23333 | 6.10957 | 1402 ft | 0 kts | 135° |
| 2026-04-20 04:32 | 46.23339 | 6.10948 | 1393 ft | 4 kts | 145° |
| 2026-04-20 04:32 | 46.23361 | 6.10929 | 1402 ft | 3 kts | 136° |
| 2026-04-20 04:32 | 46.23375 | 6.10902 | 1402 ft | 4 kts | 98° |
| 2026-04-20 04:32 | 46.23370 | 6.10869 | 1404 ft | 4 kts | 52° |
| 2026-04-20 04:33 | 46.23355 | 6.10844 | 1400 ft | 2 kts | 45° |
| 2026-04-20 04:33 | 46.23343 | 6.10826 | 1404 ft | 0 kts | 45° |
| 2026-04-20 04:36 | 46.23381 | 6.10765 | 1398 ft | 6 kts | 307° |
| 2026-04-20 04:36 | 46.23405 | 6.10720 | 1396 ft | 5 kts | 308° |
| 2026-04-20 04:36 | 46.23417 | 6.10665 | 1394 ft | 7 kts | 255° |
| 2026-04-20 04:37 | 46.23376 | 6.10611 | 1395 ft | 8 kts | 221° |
| 2026-04-20 04:37 | 46.23324 | 6.10531 | 1397 ft | 13 kts | 225° |
| 2026-04-20 04:37 | 46.23279 | 6.10467 | 1401 ft | 5 kts | 226° |
| 2026-04-20 04:37 | 46.23261 | 6.10439 | 1396 ft | 3 kts | 226° |
| 2026-04-20 04:38 | 46.23248 | 6.10419 | 1396 ft | 5 kts | 226° |
| 2026-04-20 04:38 | 46.23206 | 6.10358 | 1399 ft | 12 kts | 225° |
| 2026-04-20 04:38 | 46.23129 | 6.10240 | 1396 ft | 19 kts | 231° |
| 2026-04-20 04:38 | 46.23027 | 6.10086 | 1397 ft | 22 kts | 225° |
| 2026-04-20 04:39 | 46.22916 | 6.09925 | 1404 ft | 23 kts | 225° |
| 2026-04-20 04:39 | 46.22805 | 6.09756 | 1398 ft | 24 kts | 225° |
| 2026-04-20 04:39 | 46.22684 | 6.09585 | 1395 ft | 25 kts | 225° |
| 2026-04-20 04:39 | 46.22567 | 6.09396 | 1402 ft | 25 kts | 240° |
| 2026-04-20 04:40 | 46.22560 | 6.09196 | 1412 ft | 16 kts | 297° |
| 2026-04-20 04:40 | 46.22637 | 6.09177 | 1422 ft | 5 kts | 46° |
| 2026-04-20 04:40 | 46.22642 | 6.09184 | 1419 ft | 0 kts | 49° |
| 2026-04-20 04:40 | 46.22711 | 6.09293 | 1420 ft | 47 kts | 44° |
| 2026-04-20 04:41 | 46.23110 | 6.09871 | 1413 ft | 113 kts | 45° |
| 2026-04-20 04:41 | 46.23791 | 6.10870 | 1387 ft | 163 kts | 45° |
| 2026-04-20 04:41 | 46.24101 | 6.11331 | 1477 ft | 171 kts | 45° |
| 2026-04-20 04:42 | 46.24454 | 6.11853 | 1710 ft | 170 kts | 58° |
| 2026-04-20 04:42 | 46.25302 | 6.13168 | 2010 ft | 190 kts | 58° |
| 2026-04-20 04:42 | 46.26215 | 6.14725 | 2288 ft | 216 kts | 59° |
| 2026-04-20 04:42 | 46.27035 | 6.16604 | 2527 ft | 246 kts | 65° |
| 2026-04-20 04:43 | 46.27915 | 6.18857 | 2997 ft | 267 kts | 60° |
| 2026-04-20 04:43 | 46.28914 | 6.20714 | 3558 ft | 278 kts | 50° |
| 2026-04-20 04:43 | 46.30341 | 6.22663 | 4296 ft | 287 kts | 46° |
| 2026-04-20 04:43 | 46.31255 | 6.23869 | 4760 ft | 293 kts | 47° |
| 2026-04-20 04:44 | 46.32771 | 6.25988 | 5224 ft | 311 kts | 49° |
| 2026-04-20 04:44 | 46.34313 | 6.28274 | 5847 ft | 320 kts | 50° |
| 2026-04-20 04:44 | 46.35746 | 6.30505 | 6261 ft | 290 kts | 47° |
| 2026-04-20 04:44 | 46.36956 | 6.32655 | 6453 ft | 267 kts | 63° |
| 2026-04-20 04:45 | 46.37301 | 6.35282 | 6651 ft | 279 kts | 101° |
| 2026-04-20 04:45 | 46.36478 | 6.37808 | 7362 ft | 281 kts | 135° |
| 2026-04-20 04:45 | 46.34830 | 6.39271 | 8102 ft | 281 kts | 169° |
| 2026-04-20 04:45 | 46.32907 | 6.39211 | 8856 ft | 279 kts | 199° |
| 2026-04-20 04:46 | 46.31081 | 6.38233 | 9670 ft | 281 kts | 207° |
| 2026-04-20 04:46 | 46.29312 | 6.36985 | 10406 ft | 286 kts | 211° |
| 2026-04-20 04:46 | 46.27447 | 6.35673 | 10669 ft | 310 kts | 208° |
| 2026-04-20 04:46 | 46.25411 | 6.34318 | 10889 ft | 333 kts | 208° |
| 2026-04-20 04:47 | 46.23256 | 6.32896 | 11407 ft | 344 kts | 208° |
| 2026-04-20 04:47 | 46.21796 | 6.31970 | 11853 ft | 348 kts | 204° |
| 2026-04-20 04:47 | 46.18606 | 6.30844 | 12814 ft | 359 kts | 190° |
| 2026-04-20 04:47 | 46.16939 | 6.30690 | 13286 ft | 364 kts | 186° |
| 2026-04-20 04:48 | 46.14534 | 6.30547 | 14995 ft | 309 kts | 189° |
| 2026-04-20 04:48 | 46.14134 | 6.30516 | 15305 ft | 316 kts | 187° |
| 2026-04-20 04:48 | 46.12552 | 6.30417 | 16106 ft | 309 kts | 188° |
| 2026-04-20 04:48 | 46.09590 | 6.30227 | 16386 ft | 335 kts | 188° |
| 2026-04-20 04:49 | 46.07982 | 6.30120 | 16462 ft | 349 kts | 188° |
| 2026-04-20 04:49 | 46.05495 | 6.29958 | 16599 ft | 367 kts | 187° |
| 2026-04-20 04:49 | 46.02881 | 6.29795 | 16787 ft | 383 kts | 187° |
| 2026-04-20 04:49 | 46.00186 | 6.29635 | 17263 ft | 391 kts | 187° |
| 2026-04-20 04:50 | 45.97447 | 6.29481 | 17815 ft | 396 kts | 186° |
| 2026-04-20 04:50 | 45.94677 | 6.29331 | 18383 ft | 400 kts | 187° |
| 2026-04-20 04:50 | 45.91867 | 6.29457 | 18862 ft | 409 kts | 177° |
| 2026-04-20 04:50 | 45.89100 | 6.30324 | 19295 ft | 418 kts | 165° |
| 2026-04-20 04:51 | 45.86401 | 6.31990 | 19743 ft | 427 kts | 154° |
| 2026-04-20 04:51 | 45.83910 | 6.34394 | 20153 ft | 435 kts | 145° |
| 2026-04-20 04:51 | 45.81475 | 6.37004 | 20628 ft | 438 kts | 146° |
| 2026-04-20 04:51 | 45.79009 | 6.39633 | 21059 ft | 442 kts | 146° |
| 2026-04-20 04:52 | 45.76531 | 6.42263 | 21488 ft | 446 kts | 146° |
| 2026-04-20 04:52 | 45.74016 | 6.44924 | 21923 ft | 449 kts | 146° |
| 2026-04-20 04:52 | 45.71491 | 6.47593 | 22343 ft | 453 kts | 146° |
| 2026-04-20 04:52 | 45.68947 | 6.50278 | 22795 ft | 456 kts | 146° |
| 2026-04-20 04:53 | 45.66381 | 6.52981 | 23185 ft | 460 kts | 146° |
| 2026-04-20 04:53 | 45.63794 | 6.55699 | 23598 ft | 463 kts | 146° |
| 2026-04-20 04:53 | 45.61189 | 6.58439 | 23945 ft | 466 kts | 146° |
| 2026-04-20 04:53 | 45.58606 | 6.61161 | 24314 ft | 469 kts | 146° |
| 2026-04-20 04:54 | 45.55979 | 6.63927 | 24660 ft | 470 kts | 145° |
| 2026-04-20 04:54 | 45.53339 | 6.66704 | 25047 ft | 471 kts | 146° |
| 2026-04-20 04:54 | 45.50692 | 6.69483 | 25440 ft | 472 kts | 146° |
| 2026-04-20 04:54 | 45.48033 | 6.72266 | 25800 ft | 474 kts | 146° |
| 2026-04-20 04:55 | 45.45395 | 6.75020 | 26165 ft | 476 kts | 146° |
| 2026-04-20 04:55 | 45.42698 | 6.77788 | 26519 ft | 478 kts | 147° |
| 2026-04-20 04:55 | 45.39981 | 6.80524 | 26867 ft | 480 kts | 147° |
| 2026-04-20 04:55 | 45.37244 | 6.83253 | 27190 ft | 481 kts | 147° |
| 2026-04-20 04:56 | 45.34496 | 6.85983 | 27554 ft | 483 kts | 147° |
| 2026-04-20 04:56 | 45.31732 | 6.88726 | 27899 ft | 484 kts | 147° |
| 2026-04-20 04:56 | 45.28961 | 6.91474 | 28221 ft | 486 kts | 147° |
| 2026-04-20 04:56 | 45.26244 | 6.94349 | 28561 ft | 489 kts | 141° |
| 2026-04-20 04:57 | 45.23756 | 6.97676 | 28850 ft | 493 kts | 137° |
| 2026-04-20 04:57 | 45.21299 | 7.01083 | 29146 ft | 495 kts | 137° |
| 2026-04-20 04:57 | 45.18828 | 7.04497 | 29431 ft | 497 kts | 137° |
| 2026-04-20 04:57 | 45.16343 | 7.07917 | 29745 ft | 498 kts | 137° |
| 2026-04-20 04:58 | 45.13854 | 7.11339 | 30128 ft | 498 kts | 137° |
| 2026-04-20 04:58 | 45.11394 | 7.14783 | 30493 ft | 497 kts | 134° |
| 2026-04-20 04:58 | 45.09212 | 7.18576 | 30846 ft | 497 kts | 126° |
| 2026-04-20 04:58 | 45.07232 | 7.22582 | 31206 ft | 496 kts | 125° |
| 2026-04-20 04:59 | 45.05253 | 7.26584 | 31546 ft | 495 kts | 126° |
| 2026-04-20 04:59 | 45.03274 | 7.30568 | 31915 ft | 494 kts | 126° |
| 2026-04-20 04:59 | 45.01303 | 7.34526 | 32261 ft | 493 kts | 126° |
| 2026-04-20 04:59 | 44.99476 | 7.38626 | 32534 ft | 492 kts | 118° |
| 2026-04-20 05:00 | 44.98074 | 7.43026 | 32835 ft | 491 kts | 109° |
| 2026-04-20 05:00 | 44.97134 | 7.47649 | 33152 ft | 489 kts | 100° |
| 2026-04-20 05:00 | 44.96466 | 7.52296 | 33471 ft | 488 kts | 100° |
| 2026-04-20 05:00 | 44.95777 | 7.56997 | 33813 ft | 487 kts | 100° |
| 2026-04-20 05:01 | 44.95076 | 7.61667 | 34124 ft | 486 kts | 101° |
| 2026-04-20 05:01 | 44.94366 | 7.66337 | 34404 ft | 486 kts | 100° |
| 2026-04-20 05:01 | 44.93746 | 7.71025 | 34637 ft | 486 kts | 97° |
| 2026-04-20 05:01 | 44.93258 | 7.75749 | 34872 ft | 486 kts | 95° |
| 2026-04-20 05:02 | 44.92864 | 7.80484 | 34973 ft | 486 kts | 94° |
| 2026-04-20 05:02 | 44.92667 | 7.89997 | 34992 ft | 483 kts | 82° |
| 2026-04-20 05:03 | 44.93081 | 7.99474 | 34994 ft | 484 kts | 84° |
| 2026-04-20 05:03 | 44.93345 | 8.08929 | 34991 ft | 485 kts | 85° |
| 2026-04-20 05:04 | 44.93599 | 8.18450 | 34993 ft | 485 kts | 84° |
| 2026-04-20 05:04 | 44.93892 | 8.27956 | 34984 ft | 485 kts | 84° |
| 2026-04-20 05:05 | 44.94193 | 8.37474 | 34988 ft | 485 kts | 84° |
| 2026-04-20 05:05 | 44.94487 | 8.47008 | 35005 ft | 486 kts | 84° |
| 2026-04-20 05:06 | 44.94759 | 8.56538 | 34999 ft | 486 kts | 84° |
| 2026-04-20 05:06 | 44.95018 | 8.66075 | 34993 ft | 486 kts | 84° |
| 2026-04-20 05:07 | 44.95273 | 8.75612 | 34994 ft | 486 kts | 84° |
| 2026-04-20 05:07 | 44.95522 | 8.85078 | 34998 ft | 486 kts | 84° |
| 2026-04-20 05:08 | 44.95767 | 8.94628 | 34998 ft | 486 kts | 85° |
| 2026-04-20 05:08 | 44.95997 | 9.04178 | 35002 ft | 486 kts | 85° |
| 2026-04-20 05:09 | 44.96218 | 9.13732 | 35002 ft | 486 kts | 85° |
| 2026-04-20 05:09 | 44.96436 | 9.23286 | 35010 ft | 487 kts | 85° |
| 2026-04-20 05:10 | 44.96646 | 9.32773 | 35009 ft | 487 kts | 85° |
| 2026-04-20 05:10 | 44.96855 | 9.42382 | 35009 ft | 486 kts | 85° |
| 2026-04-20 05:11 | 44.97051 | 9.51871 | 35009 ft | 487 kts | 85° |
| 2026-04-20 05:11 | 44.97235 | 9.61442 | 35017 ft | 487 kts | 85° |
| 2026-04-20 05:12 | 44.97412 | 9.71007 | 35014 ft | 487 kts | 85° |
| 2026-04-20 05:12 | 44.97580 | 9.80593 | 35000 ft | 488 kts | 85° |
| 2026-04-20 05:13 | 44.97747 | 9.90133 | 34998 ft | 488 kts | 85° |
| 2026-04-20 05:13 | 44.97906 | 9.99724 | 35009 ft | 489 kts | 85° |
| 2026-04-20 05:14 | 44.98050 | 10.09345 | 35003 ft | 490 kts | 85° |
| 2026-04-20 05:14 | 44.98190 | 10.18970 | 35002 ft | 490 kts | 85° |
| 2026-04-20 05:15 | 44.98319 | 10.28608 | 35002 ft | 490 kts | 85° |
| 2026-04-20 05:15 | 44.98443 | 10.38263 | 35025 ft | 491 kts | 85° |
| 2026-04-20 05:16 | 44.98555 | 10.47847 | 35021 ft | 491 kts | 85° |
| 2026-04-20 05:16 | 44.98659 | 10.57503 | 35018 ft | 491 kts | 85° |
| 2026-04-20 05:17 | 44.98755 | 10.67160 | 35020 ft | 492 kts | 85° |
| 2026-04-20 05:17 | 44.98848 | 10.76828 | 35033 ft | 492 kts | 85° |
| 2026-04-20 05:18 | 44.98932 | 10.86503 | 35030 ft | 492 kts | 85° |
| 2026-04-20 05:18 | 44.99011 | 10.96176 | 35029 ft | 492 kts | 85° |
| 2026-04-20 05:19 | 44.99082 | 11.05851 | 35028 ft | 492 kts | 85° |
| 2026-04-20 05:19 | 44.99139 | 11.15462 | 35025 ft | 493 kts | 85° |
| 2026-04-20 05:20 | 44.99188 | 11.25157 | 35022 ft | 493 kts | 85° |
| 2026-04-20 05:20 | 44.99235 | 11.34840 | 35023 ft | 493 kts | 85° |
| 2026-04-20 05:21 | 44.99271 | 11.44518 | 35024 ft | 493 kts | 86° |
| 2026-04-20 05:21 | 44.99292 | 11.54195 | 35037 ft | 493 kts | 86° |
| 2026-04-20 05:22 | 44.99307 | 11.63882 | 35031 ft | 494 kts | 85° |
| 2026-04-20 05:22 | 44.99321 | 11.73589 | 35014 ft | 494 kts | 85° |
| 2026-04-20 05:23 | 44.99324 | 11.83242 | 35007 ft | 495 kts | 86° |
| 2026-04-20 05:23 | 44.99314 | 11.92988 | 35018 ft | 495 kts | 86° |
| 2026-04-20 05:24 | 44.99290 | 12.02719 | 35005 ft | 495 kts | 86° |
| 2026-04-20 05:24 | 44.99268 | 12.12451 | 35002 ft | 495 kts | 86° |
| 2026-04-20 05:25 | 44.99236 | 12.22206 | 34999 ft | 495 kts | 86° |
| 2026-04-20 05:25 | 44.99200 | 12.31946 | 35013 ft | 496 kts | 86° |
| 2026-04-20 05:26 | 44.99156 | 12.41631 | 35003 ft | 496 kts | 86° |
| 2026-04-20 05:26 | 44.99096 | 12.51366 | 35004 ft | 496 kts | 86° |
| 2026-04-20 05:27 | 44.99027 | 12.61103 | 35001 ft | 495 kts | 86° |
| 2026-04-20 05:27 | 44.98952 | 12.70839 | 35008 ft | 496 kts | 86° |
| 2026-04-20 05:28 | 44.98870 | 12.80566 | 35017 ft | 495 kts | 86° |
| 2026-04-20 05:28 | 44.98785 | 12.90295 | 35021 ft | 495 kts | 86° |
| 2026-04-20 05:29 | 44.98678 | 13.00017 | 35031 ft | 495 kts | 87° |
| 2026-04-20 05:29 | 44.98370 | 13.09741 | 35018 ft | 499 kts | 95° |
| 2026-04-20 05:30 | 44.96835 | 13.19327 | 35033 ft | 501 kts | 101° |
| 2026-04-20 05:30 | 44.95163 | 13.28801 | 35033 ft | 500 kts | 101° |
| 2026-04-20 05:31 | 44.93487 | 13.38347 | 35034 ft | 499 kts | 101° |
| 2026-04-20 05:31 | 44.92098 | 13.46248 | 35036 ft | 499 kts | 101° |
| 2026-04-20 05:32 | 44.90421 | 13.55753 | 35030 ft | 499 kts | 101° |
| 2026-04-20 05:32 | 44.88450 | 13.66792 | 35030 ft | 499 kts | 102° |
| 2026-04-20 05:33 | 44.87027 | 13.74734 | 35032 ft | 499 kts | 102° |
| 2026-04-20 05:33 | 44.85329 | 13.84165 | 35036 ft | 499 kts | 102° |
| 2026-04-20 05:34 | 44.83620 | 13.93640 | 35033 ft | 499 kts | 102° |
| 2026-04-20 05:34 | 44.81032 | 14.07845 | 35023 ft | 499 kts | 102° |
| 2026-04-20 05:35 | 44.79298 | 14.17317 | 35023 ft | 499 kts | 102° |
| 2026-04-20 05:35 | 44.77557 | 14.26784 | 35033 ft | 499 kts | 102° |
| 2026-04-20 05:36 | 44.75810 | 14.36244 | 35034 ft | 499 kts | 102° |
| 2026-04-20 05:36 | 44.74064 | 14.45631 | 35030 ft | 498 kts | 102° |
| 2026-04-20 05:37 | 44.72301 | 14.55060 | 35038 ft | 498 kts | 102° |
| 2026-04-20 05:37 | 44.70532 | 14.64469 | 35042 ft | 498 kts | 102° |
| 2026-04-20 05:38 | 44.68812 | 14.73901 | 35041 ft | 497 kts | 101° |
| 2026-04-20 05:38 | 44.67181 | 14.83348 | 35038 ft | 496 kts | 101° |
| 2026-04-20 05:39 | 44.65567 | 14.92711 | 35037 ft | 496 kts | 101° |
| 2026-04-20 05:39 | 44.63908 | 15.02119 | 35037 ft | 496 kts | 101° |
| 2026-04-20 05:40 | 44.62224 | 15.11505 | 35032 ft | 496 kts | 102° |
| 2026-04-20 05:40 | 44.60530 | 15.20903 | 35029 ft | 496 kts | 102° |
| 2026-04-20 05:41 | 44.58840 | 15.30278 | 35031 ft | 495 kts | 102° |
| 2026-04-20 05:41 | 44.57149 | 15.39647 | 35039 ft | 495 kts | 102° |
| 2026-04-20 05:42 | 44.55452 | 15.49009 | 35031 ft | 495 kts | 102° |
| 2026-04-20 05:42 | 44.53746 | 15.58360 | 35034 ft | 495 kts | 102° |
| 2026-04-20 05:43 | 44.52023 | 15.67696 | 35049 ft | 495 kts | 102° |
| 2026-04-20 05:43 | 44.50302 | 15.76958 | 35043 ft | 494 kts | 102° |
| 2026-04-20 05:44 | 44.48560 | 15.86287 | 35041 ft | 494 kts | 102° |
| 2026-04-20 05:44 | 44.46819 | 15.95609 | 35047 ft | 494 kts | 103° |
| 2026-04-20 05:45 | 44.45081 | 16.04908 | 35047 ft | 493 kts | 103° |
| 2026-04-20 05:45 | 44.43337 | 16.14189 | 35050 ft | 493 kts | 103° |
| 2026-04-20 05:46 | 44.41594 | 16.23405 | 35049 ft | 493 kts | 103° |
| 2026-04-20 05:46 | 44.39828 | 16.32659 | 35040 ft | 492 kts | 103° |
| 2026-04-20 05:47 | 44.38064 | 16.41885 | 35054 ft | 491 kts | 103° |
| 2026-04-20 05:47 | 44.36291 | 16.51104 | 35054 ft | 491 kts | 103° |
| 2026-04-20 05:48 | 44.34510 | 16.60309 | 35055 ft | 490 kts | 103° |
| 2026-04-20 05:48 | 44.32728 | 16.69492 | 35057 ft | 490 kts | 103° |
| 2026-04-20 05:49 | 44.30937 | 16.78671 | 35059 ft | 489 kts | 104° |
| 2026-04-20 05:49 | 44.29117 | 16.87830 | 35059 ft | 489 kts | 104° |
| 2026-04-20 05:50 | 44.27217 | 16.96969 | 35062 ft | 489 kts | 105° |
| 2026-04-20 05:50 | 44.25295 | 17.06092 | 35071 ft | 490 kts | 105° |
| 2026-04-20 05:51 | 44.23384 | 17.15205 | 35069 ft | 490 kts | 105° |
| 2026-04-20 05:51 | 44.21471 | 17.24331 | 35068 ft | 490 kts | 105° |
| 2026-04-20 05:52 | 44.19562 | 17.33374 | 35064 ft | 490 kts | 105° |
| 2026-04-20 05:52 | 44.17632 | 17.42477 | 35068 ft | 490 kts | 105° |
| 2026-04-20 05:53 | 44.15691 | 17.51577 | 35065 ft | 490 kts | 105° |
| 2026-04-20 05:53 | 44.13750 | 17.60669 | 35066 ft | 489 kts | 105° |
| 2026-04-20 05:54 | 44.11797 | 17.69755 | 35058 ft | 489 kts | 105° |
| 2026-04-20 05:54 | 44.09840 | 17.78813 | 35059 ft | 488 kts | 106° |
| 2026-04-20 05:55 | 44.07891 | 17.87804 | 35054 ft | 488 kts | 106° |
| 2026-04-20 05:55 | 44.05929 | 17.96841 | 35048 ft | 488 kts | 106° |
| 2026-04-20 05:56 | 44.03962 | 18.05857 | 35051 ft | 487 kts | 106° |
| 2026-04-20 05:56 | 44.01985 | 18.14862 | 35051 ft | 487 kts | 106° |
| 2026-04-20 05:57 | 44.00000 | 18.23871 | 35049 ft | 487 kts | 106° |
| 2026-04-20 05:57 | 43.98007 | 18.32873 | 35051 ft | 487 kts | 106° |
| 2026-04-20 05:58 | 43.96024 | 18.41805 | 35050 ft | 487 kts | 106° |
| 2026-04-20 05:58 | 43.94021 | 18.50796 | 35046 ft | 487 kts | 107° |
| 2026-04-20 05:59 | 43.92009 | 18.59768 | 35042 ft | 487 kts | 107° |
| 2026-04-20 05:59 | 43.89992 | 18.68731 | 35038 ft | 487 kts | 107° |
| 2026-04-20 06:00 | 43.87970 | 18.77690 | 35048 ft | 486 kts | 107° |
| 2026-04-20 06:00 | 43.85950 | 18.86620 | 35042 ft | 485 kts | 107° |
| 2026-04-20 06:01 | 43.83921 | 18.95538 | 35043 ft | 485 kts | 107° |
| 2026-04-20 06:01 | 43.81890 | 19.04388 | 35047 ft | 485 kts | 107° |
| 2026-04-20 06:02 | 43.79839 | 19.13277 | 35046 ft | 484 kts | 107° |
| 2026-04-20 06:02 | 43.77793 | 19.22156 | 35046 ft | 483 kts | 107° |
| 2026-04-20 06:03 | 43.75821 | 19.31047 | 35043 ft | 483 kts | 105° |
| 2026-04-20 06:03 | 43.74013 | 19.39943 | 35044 ft | 483 kts | 105° |
| 2026-04-20 06:04 | 43.72202 | 19.48870 | 35043 ft | 482 kts | 105° |
| 2026-04-20 06:04 | 43.70343 | 19.57795 | 35040 ft | 482 kts | 105° |
| 2026-04-20 06:05 | 43.68454 | 19.66690 | 35033 ft | 482 kts | 106° |
| 2026-04-20 06:05 | 43.66560 | 19.75580 | 35044 ft | 482 kts | 105° |
| 2026-04-20 06:06 | 43.64679 | 19.84453 | 35042 ft | 481 kts | 106° |
| 2026-04-20 06:06 | 43.62794 | 19.93296 | 35036 ft | 480 kts | 106° |
| 2026-04-20 06:07 | 43.60901 | 20.02127 | 35036 ft | 480 kts | 106° |
| 2026-04-20 06:07 | 43.59020 | 20.10899 | 35037 ft | 479 kts | 106° |
| 2026-04-20 06:08 | 43.57122 | 20.19699 | 35040 ft | 478 kts | 106° |
| 2026-04-20 06:08 | 43.55213 | 20.28471 | 35040 ft | 477 kts | 106° |
| 2026-04-20 06:09 | 43.53301 | 20.37229 | 35031 ft | 477 kts | 106° |
| 2026-04-20 06:09 | 43.51383 | 20.45995 | 35026 ft | 476 kts | 107° |
| 2026-04-20 06:10 | 43.49469 | 20.54728 | 35022 ft | 476 kts | 107° |
| 2026-04-20 06:10 | 43.47559 | 20.63391 | 35011 ft | 476 kts | 107° |
| 2026-04-20 06:11 | 43.45630 | 20.72104 | 35008 ft | 476 kts | 107° |
| 2026-04-20 06:11 | 43.43693 | 20.80815 | 35003 ft | 475 kts | 107° |
| 2026-04-20 06:12 | 43.41748 | 20.89511 | 34998 ft | 475 kts | 107° |
| 2026-04-20 06:12 | 43.39798 | 20.98224 | 34987 ft | 475 kts | 107° |
| 2026-04-20 06:13 | 43.37844 | 21.06908 | 34995 ft | 475 kts | 107° |
| 2026-04-20 06:13 | 43.35898 | 21.15516 | 34995 ft | 474 kts | 107° |
| 2026-04-20 06:14 | 43.33936 | 21.24175 | 35003 ft | 474 kts | 107° |
| 2026-04-20 06:14 | 43.31964 | 21.32818 | 35005 ft | 474 kts | 107° |
| 2026-04-20 06:15 | 43.29987 | 21.41452 | 34999 ft | 474 kts | 107° |
| 2026-04-20 06:15 | 43.28005 | 21.50073 | 35003 ft | 473 kts | 107° |
| 2026-04-20 06:16 | 43.26015 | 21.58697 | 35020 ft | 473 kts | 107° |
| 2026-04-20 06:16 | 43.24034 | 21.67246 | 35022 ft | 473 kts | 107° |
| 2026-04-20 06:17 | 43.22036 | 21.75847 | 35022 ft | 473 kts | 108° |
| 2026-04-20 06:17 | 43.20372 | 21.82984 | 35027 ft | 473 kts | 108° |
| 2026-04-20 06:18 | 43.18371 | 21.91561 | 35019 ft | 473 kts | 108° |
| 2026-04-20 06:18 | 43.16358 | 22.00130 | 35007 ft | 472 kts | 108° |
| 2026-04-20 06:19 | 43.14332 | 22.08697 | 35001 ft | 472 kts | 108° |
| 2026-04-20 06:19 | 43.12302 | 22.17253 | 34989 ft | 472 kts | 108° |
| 2026-04-20 06:20 | 43.10271 | 22.25796 | 34984 ft | 472 kts | 108° |
| 2026-04-20 06:20 | 43.08254 | 22.34277 | 34981 ft | 472 kts | 108° |
| 2026-04-20 06:21 | 43.06211 | 22.42827 | 34987 ft | 472 kts | 108° |
| 2026-04-20 06:21 | 43.04157 | 22.51378 | 34989 ft | 473 kts | 108° |
| 2026-04-20 06:22 | 43.02092 | 22.59915 | 34984 ft | 473 kts | 108° |
| 2026-04-20 06:22 | 43.00011 | 22.68440 | 34997 ft | 473 kts | 108° |
| 2026-04-20 06:23 | 42.97940 | 22.76968 | 34992 ft | 473 kts | 108° |
| 2026-04-20 06:23 | 42.96570 | 22.85667 | 34990 ft | 472 kts | 98° |
| 2026-04-20 06:24 | 42.95501 | 22.94505 | 34989 ft | 472 kts | 99° |
| 2026-04-20 06:24 | 42.94397 | 23.03350 | 35001 ft | 472 kts | 98° |
| 2026-04-20 06:25 | 42.93845 | 23.07770 | 35205 ft | 473 kts | 98° |
| 2026-04-20 06:25 | 42.93294 | 23.12196 | 35473 ft | 473 kts | 98° |
| 2026-04-20 06:25 | 42.92740 | 23.16632 | 35714 ft | 473 kts | 98° |
| 2026-04-20 06:25 | 42.92188 | 23.21065 | 35947 ft | 474 kts | 98° |
| 2026-04-20 06:26 | 42.91635 | 23.25499 | 36167 ft | 475 kts | 98° |
| 2026-04-20 06:26 | 42.91080 | 23.29937 | 36389 ft | 475 kts | 98° |
| 2026-04-20 06:26 | 42.90522 | 23.34384 | 36601 ft | 476 kts | 99° |
| 2026-04-20 06:26 | 42.89954 | 23.38840 | 36813 ft | 476 kts | 99° |
| 2026-04-20 06:27 | 42.89384 | 23.43293 | 36971 ft | 477 kts | 99° |
| 2026-04-20 06:27 | 42.88817 | 23.47754 | 37001 ft | 477 kts | 99° |
| 2026-04-20 06:27 | 42.87682 | 23.56605 | 36993 ft | 477 kts | 99° |
| 2026-04-20 06:28 | 42.86538 | 23.65524 | 36990 ft | 477 kts | 99° |
| 2026-04-20 06:28 | 42.85384 | 23.74439 | 37005 ft | 477 kts | 99° |
| 2026-04-20 06:29 | 42.84212 | 23.83357 | 36986 ft | 477 kts | 99° |
| 2026-04-20 06:29 | 42.83043 | 23.92223 | 36987 ft | 477 kts | 99° |
| 2026-04-20 06:30 | 42.81865 | 24.01116 | 36990 ft | 477 kts | 99° |
| 2026-04-20 06:30 | 42.80685 | 24.09997 | 36987 ft | 477 kts | 99° |
| 2026-04-20 06:31 | 42.79501 | 24.18905 | 36992 ft | 477 kts | 99° |
| 2026-04-20 06:31 | 42.78310 | 24.27790 | 36994 ft | 477 kts | 99° |
| 2026-04-20 06:32 | 42.77100 | 24.36679 | 36992 ft | 477 kts | 99° |
| 2026-04-20 06:32 | 42.75893 | 24.45496 | 36990 ft | 476 kts | 100° |
| 2026-04-20 06:33 | 42.74676 | 24.54345 | 36993 ft | 476 kts | 100° |
| 2026-04-20 06:33 | 42.73455 | 24.63190 | 36993 ft | 476 kts | 100° |
| 2026-04-20 06:34 | 42.72223 | 24.72049 | 36983 ft | 475 kts | 100° |
| 2026-04-20 06:35 | 42.70393 | 24.85244 | 36994 ft | 475 kts | 100° |
| 2026-04-20 06:35 | 42.69154 | 24.94062 | 36985 ft | 475 kts | 100° |
| 2026-04-20 06:36 | 42.67891 | 25.02939 | 36979 ft | 475 kts | 100° |
| 2026-04-20 06:36 | 42.66652 | 25.11700 | 36980 ft | 475 kts | 100° |
| 2026-04-20 06:37 | 42.65392 | 25.20517 | 36988 ft | 476 kts | 100° |
| 2026-04-20 06:37 | 42.64106 | 25.29355 | 36990 ft | 476 kts | 101° |
| 2026-04-20 06:38 | 42.62820 | 25.38195 | 36995 ft | 476 kts | 100° |
| 2026-04-20 06:38 | 42.61557 | 25.46957 | 37000 ft | 476 kts | 100° |
| 2026-04-20 06:39 | 42.60264 | 25.55785 | 37004 ft | 476 kts | 101° |
| 2026-04-20 06:39 | 42.58957 | 25.64631 | 37008 ft | 476 kts | 101° |
| 2026-04-20 06:40 | 42.57660 | 25.73395 | 37017 ft | 476 kts | 101° |
| 2026-04-20 06:40 | 42.56345 | 25.82205 | 37016 ft | 476 kts | 101° |
| 2026-04-20 06:41 | 42.55022 | 25.91000 | 37029 ft | 476 kts | 101° |
| 2026-04-20 06:41 | 42.53696 | 25.99798 | 37028 ft | 476 kts | 101° |
| 2026-04-20 06:42 | 42.52363 | 26.08593 | 37027 ft | 476 kts | 101° |
| 2026-04-20 06:42 | 42.51027 | 26.17385 | 37029 ft | 476 kts | 101° |
| 2026-04-20 06:43 | 42.49686 | 26.26122 | 37039 ft | 476 kts | 101° |
| 2026-04-20 06:43 | 42.48334 | 26.34908 | 37039 ft | 476 kts | 101° |
| 2026-04-20 06:44 | 42.46979 | 26.43686 | 37036 ft | 476 kts | 101° |
| 2026-04-20 06:44 | 42.45611 | 26.52461 | 37037 ft | 476 kts | 101° |
| 2026-04-20 06:45 | 42.44231 | 26.61259 | 37030 ft | 477 kts | 101° |
| 2026-04-20 06:45 | 42.42845 | 26.70048 | 37028 ft | 477 kts | 101° |
| 2026-04-20 06:46 | 42.41464 | 26.78783 | 37029 ft | 477 kts | 101° |
| 2026-04-20 06:46 | 42.40067 | 26.87574 | 37023 ft | 478 kts | 102° |
| 2026-04-20 06:47 | 42.38657 | 26.96362 | 37017 ft | 478 kts | 102° |
| 2026-04-20 06:47 | 42.37248 | 27.05152 | 37016 ft | 478 kts | 102° |
| 2026-04-20 06:48 | 42.35836 | 27.13950 | 37026 ft | 478 kts | 102° |
| 2026-04-20 06:48 | 42.34403 | 27.22755 | 37024 ft | 479 kts | 102° |
| 2026-04-20 06:49 | 42.32963 | 27.31547 | 37023 ft | 479 kts | 102° |
| 2026-04-20 06:49 | 42.31515 | 27.40353 | 37025 ft | 480 kts | 102° |
| 2026-04-20 06:50 | 42.30065 | 27.49175 | 37026 ft | 480 kts | 102° |
| 2026-04-20 06:50 | 42.28608 | 27.57965 | 37027 ft | 480 kts | 102° |
| 2026-04-20 06:51 | 42.27149 | 27.66713 | 37026 ft | 480 kts | 102° |
| 2026-04-20 06:51 | 42.25681 | 27.75502 | 37030 ft | 480 kts | 102° |
| 2026-04-20 06:52 | 42.24203 | 27.84292 | 37035 ft | 480 kts | 102° |
| 2026-04-20 06:52 | 42.22713 | 27.93082 | 37037 ft | 480 kts | 102° |
| 2026-04-20 06:53 | 42.21221 | 28.01873 | 37054 ft | 481 kts | 102° |
| 2026-04-20 06:53 | 42.19720 | 28.10662 | 37050 ft | 481 kts | 102° |
| 2026-04-20 06:54 | 42.18212 | 28.19455 | 37048 ft | 481 kts | 103° |
| 2026-04-20 06:54 | 42.16696 | 28.28236 | 37054 ft | 481 kts | 103° |
| 2026-04-20 06:55 | 42.15186 | 28.36960 | 37057 ft | 481 kts | 103° |
| 2026-04-20 06:55 | 42.13660 | 28.45736 | 37060 ft | 481 kts | 103° |
| 2026-04-20 06:56 | 42.12127 | 28.54500 | 37065 ft | 481 kts | 103° |
| 2026-04-20 06:56 | 42.10584 | 28.63262 | 37066 ft | 481 kts | 103° |
| 2026-04-20 06:57 | 42.09034 | 28.72028 | 37065 ft | 481 kts | 104° |
| 2026-04-20 06:57 | 42.06492 | 28.80324 | 37069 ft | 479 kts | 122° |
| 2026-04-20 06:58 | 42.02939 | 28.87905 | 37072 ft | 479 kts | 123° |
| 2026-04-20 06:58 | 41.99377 | 28.95473 | 37078 ft | 479 kts | 123° |
| 2026-04-20 06:59 | 41.95819 | 29.03036 | 37080 ft | 479 kts | 123° |
| 2026-04-20 06:59 | 41.92852 | 29.09318 | 37079 ft | 478 kts | 123° |
| 2026-04-20 07:00 | 41.88706 | 29.18089 | 37071 ft | 478 kts | 123° |
| 2026-04-20 07:00 | 41.85137 | 29.25612 | 37086 ft | 478 kts | 123° |
| 2026-04-20 07:01 | 41.82164 | 29.31855 | 37088 ft | 478 kts | 123° |
| 2026-04-20 07:01 | 41.78585 | 29.39362 | 37091 ft | 477 kts | 123° |
| 2026-04-20 07:02 | 41.75003 | 29.46852 | 37091 ft | 477 kts | 123° |
| 2026-04-20 07:02 | 41.71416 | 29.54345 | 37093 ft | 477 kts | 123° |
| 2026-04-20 07:03 | 41.67828 | 29.61813 | 37092 ft | 476 kts | 123° |
| 2026-04-20 07:03 | 41.64257 | 29.69212 | 37098 ft | 476 kts | 123° |
| 2026-04-20 07:04 | 41.60661 | 29.76675 | 37097 ft | 476 kts | 123° |
| 2026-04-20 07:04 | 41.57068 | 29.84112 | 37099 ft | 476 kts | 123° |
| 2026-04-20 07:05 | 41.53468 | 29.91540 | 37102 ft | 476 kts | 123° |
| 2026-04-20 07:05 | 41.49862 | 29.98952 | 37106 ft | 476 kts | 124° |
| 2026-04-20 07:06 | 41.46256 | 30.06345 | 37106 ft | 476 kts | 123° |
| 2026-04-20 07:06 | 41.42653 | 30.13746 | 37103 ft | 475 kts | 123° |
| 2026-04-20 07:07 | 41.39069 | 30.21076 | 37103 ft | 475 kts | 124° |
| 2026-04-20 07:07 | 41.35452 | 30.28450 | 37103 ft | 475 kts | 124° |
| 2026-04-20 07:08 | 41.31828 | 30.35804 | 37112 ft | 475 kts | 124° |
| 2026-04-20 07:08 | 41.28191 | 30.43156 | 37114 ft | 475 kts | 124° |
| 2026-04-20 07:09 | 41.25092 | 30.50869 | 37111 ft | 474 kts | 104° |
| 2026-04-20 07:09 | 41.24595 | 30.55177 | 37102 ft | 471 kts | 89° |
| 2026-04-20 07:09 | 41.24664 | 30.59475 | 37101 ft | 470 kts | 86° |
| 2026-04-20 07:10 | 41.24878 | 30.68173 | 37104 ft | 471 kts | 86° |
| 2026-04-20 07:10 | 41.25097 | 30.76877 | 37115 ft | 471 kts | 86° |
| 2026-04-20 07:11 | 41.25296 | 30.85582 | 37112 ft | 471 kts | 86° |
| 2026-04-20 07:11 | 41.25474 | 30.94301 | 37113 ft | 471 kts | 87° |
| 2026-04-20 07:12 | 41.25647 | 31.03013 | 37105 ft | 471 kts | 87° |
| 2026-04-20 07:12 | 41.25810 | 31.11670 | 37111 ft | 471 kts | 87° |
| 2026-04-20 07:13 | 41.25973 | 31.20356 | 37108 ft | 470 kts | 87° |
| 2026-04-20 07:13 | 41.26139 | 31.29061 | 37106 ft | 470 kts | 87° |
| 2026-04-20 07:14 | 41.26289 | 31.37762 | 37109 ft | 471 kts | 87° |
| 2026-04-20 07:14 | 41.26430 | 31.46461 | 37104 ft | 471 kts | 87° |
| 2026-04-20 07:15 | 41.26573 | 31.55169 | 37101 ft | 471 kts | 87° |
| 2026-04-20 07:15 | 41.26708 | 31.63878 | 37098 ft | 471 kts | 87° |
| 2026-04-20 07:16 | 41.26835 | 31.72586 | 37096 ft | 471 kts | 87° |
| 2026-04-20 07:16 | 41.26953 | 31.81244 | 37096 ft | 471 kts | 87° |
| 2026-04-20 07:17 | 41.27058 | 31.89954 | 37100 ft | 471 kts | 87° |
| 2026-04-20 07:17 | 41.27165 | 31.98655 | 37107 ft | 471 kts | 87° |
| 2026-04-20 07:18 | 41.27269 | 32.07374 | 37103 ft | 471 kts | 87° |
| 2026-04-20 07:18 | 41.27359 | 32.16087 | 37100 ft | 471 kts | 87° |
| 2026-04-20 07:19 | 41.27443 | 32.24794 | 37101 ft | 471 kts | 87° |
| 2026-04-20 07:19 | 41.27519 | 32.33443 | 37097 ft | 471 kts | 87° |
| 2026-04-20 07:20 | 41.27592 | 32.42141 | 37091 ft | 471 kts | 87° |
| 2026-04-20 07:20 | 41.27656 | 32.50841 | 37091 ft | 471 kts | 88° |
| 2026-04-20 07:21 | 41.27716 | 32.59554 | 37102 ft | 471 kts | 88° |
| 2026-04-20 07:21 | 41.27777 | 32.68258 | 37098 ft | 470 kts | 88° |
| 2026-04-20 07:22 | 41.27824 | 32.76956 | 37095 ft | 470 kts | 88° |
| 2026-04-20 07:22 | 41.27860 | 32.85638 | 37092 ft | 469 kts | 88° |
| 2026-04-20 07:23 | 41.27892 | 32.94316 | 37086 ft | 469 kts | 88° |
| 2026-04-20 07:23 | 41.27923 | 33.02938 | 37087 ft | 469 kts | 88° |
| 2026-04-20 07:24 | 41.27944 | 33.11615 | 37084 ft | 469 kts | 88° |
| 2026-04-20 07:24 | 41.27954 | 33.20296 | 37092 ft | 469 kts | 88° |
| 2026-04-20 07:25 | 41.27961 | 33.28967 | 37087 ft | 469 kts | 88° |
| 2026-04-20 07:25 | 41.27964 | 33.37589 | 37086 ft | 469 kts | 88° |
| 2026-04-20 07:26 | 41.27956 | 33.46265 | 37086 ft | 469 kts | 88° |
| 2026-04-20 07:26 | 41.27945 | 33.54943 | 37085 ft | 469 kts | 88° |
| 2026-04-20 07:27 | 41.27925 | 33.63614 | 37082 ft | 469 kts | 88° |
| 2026-04-20 07:27 | 41.27897 | 33.72279 | 37079 ft | 468 kts | 88° |
| 2026-04-20 07:28 | 41.27869 | 33.80941 | 37080 ft | 468 kts | 89° |
| 2026-04-20 07:28 | 41.27832 | 33.89595 | 37077 ft | 468 kts | 89° |
| 2026-04-20 07:29 | 41.27790 | 33.98194 | 37074 ft | 468 kts | 89° |
| 2026-04-20 07:29 | 41.27738 | 34.06855 | 37073 ft | 467 kts | 89° |
| 2026-04-20 07:30 | 41.27677 | 34.15511 | 37067 ft | 467 kts | 89° |
| 2026-04-20 07:30 | 41.27615 | 34.24089 | 37064 ft | 467 kts | 89° |
| 2026-04-20 07:31 | 41.27549 | 34.32709 | 37069 ft | 466 kts | 89° |
| 2026-04-20 07:31 | 41.27470 | 34.41334 | 37060 ft | 466 kts | 89° |
| 2026-04-20 07:32 | 41.27383 | 34.49946 | 37057 ft | 466 kts | 89° |
| 2026-04-20 07:32 | 41.27297 | 34.58556 | 37057 ft | 466 kts | 90° |
| 2026-04-20 07:33 | 41.27204 | 34.67182 | 37049 ft | 466 kts | 90° |
| 2026-04-20 07:33 | 41.27098 | 34.75792 | 37060 ft | 466 kts | 90° |
| 2026-04-20 07:34 | 41.26984 | 34.84342 | 37048 ft | 465 kts | 90° |
| 2026-04-20 07:34 | 41.26877 | 34.92949 | 37052 ft | 465 kts | 90° |
| 2026-04-20 07:35 | 41.26688 | 35.05865 | 37055 ft | 466 kts | 90° |
| 2026-04-20 07:35 | 41.26552 | 35.14469 | 37051 ft | 466 kts | 90° |
| 2026-04-20 07:36 | 41.26422 | 35.23030 | 37052 ft | 466 kts | 90° |
| 2026-04-20 07:36 | 41.26284 | 35.31658 | 37056 ft | 466 kts | 90° |
| 2026-04-20 07:37 | 41.26131 | 35.40273 | 37057 ft | 466 kts | 90° |
| 2026-04-20 07:37 | 41.25974 | 35.48899 | 37056 ft | 467 kts | 90° |
| 2026-04-20 07:38 | 41.25811 | 35.57532 | 37057 ft | 467 kts | 90° |
| 2026-04-20 07:38 | 41.25641 | 35.66157 | 37061 ft | 467 kts | 91° |
| 2026-04-20 07:39 | 41.25466 | 35.74726 | 37066 ft | 467 kts | 91° |
| 2026-04-20 07:39 | 41.25284 | 35.83367 | 37065 ft | 467 kts | 91° |
| 2026-04-20 07:40 | 41.25091 | 35.92007 | 37068 ft | 467 kts | 91° |
| 2026-04-20 07:40 | 41.24890 | 36.00638 | 37074 ft | 467 kts | 91° |
| 2026-04-20 07:41 | 41.24692 | 36.09271 | 37076 ft | 468 kts | 91° |
| 2026-04-20 07:41 | 41.24491 | 36.17914 | 37075 ft | 468 kts | 91° |
| 2026-04-20 07:42 | 41.24278 | 36.26552 | 37085 ft | 468 kts | 92° |
| 2026-04-20 07:42 | 41.24054 | 36.35153 | 37091 ft | 468 kts | 92° |
| 2026-04-20 07:43 | 41.23824 | 36.43794 | 37092 ft | 468 kts | 92° |
| 2026-04-20 07:43 | 41.23584 | 36.52431 | 37098 ft | 468 kts | 92° |
| 2026-04-20 07:44 | 41.23344 | 36.61071 | 37122 ft | 468 kts | 92° |
| 2026-04-20 07:44 | 41.23100 | 36.69704 | 37118 ft | 468 kts | 92° |
| 2026-04-20 07:45 | 41.22847 | 36.78302 | 37122 ft | 468 kts | 92° |
| 2026-04-20 07:45 | 41.22589 | 36.86937 | 37117 ft | 468 kts | 92° |
| 2026-04-20 07:46 | 41.22372 | 36.94179 | 37110 ft | 468 kts | 93° |
| 2026-04-20 07:46 | 41.22098 | 37.02766 | 37097 ft | 468 kts | 93° |
| 2026-04-20 07:47 | 41.21818 | 37.11413 | 37091 ft | 468 kts | 93° |
| 2026-04-20 07:47 | 41.21525 | 37.20076 | 37099 ft | 468 kts | 93° |
| 2026-04-20 07:48 | 41.21111 | 37.28708 | 37096 ft | 468 kts | 96° |
| 2026-04-20 07:48 | 41.20437 | 37.37301 | 37098 ft | 468 kts | 97° |
| 2026-04-20 07:49 | 41.19715 | 37.45889 | 37094 ft | 468 kts | 97° |
| 2026-04-20 07:49 | 41.19049 | 37.54496 | 37101 ft | 468 kts | 97° |
| 2026-04-20 07:50 | 41.18520 | 37.63064 | 37094 ft | 469 kts | 96° |
| 2026-04-20 07:50 | 41.17937 | 37.71692 | 37101 ft | 469 kts | 97° |
| 2026-04-20 07:51 | 41.17182 | 37.80308 | 37096 ft | 470 kts | 98° |
| 2026-04-20 07:51 | 41.16387 | 37.88926 | 37111 ft | 470 kts | 98° |
| 2026-04-20 07:52 | 41.15668 | 37.97559 | 37111 ft | 470 kts | 97° |
| 2026-04-20 07:52 | 41.15015 | 38.06140 | 37113 ft | 470 kts | 97° |
| 2026-04-20 07:53 | 41.14347 | 38.14772 | 37099 ft | 470 kts | 98° |
| 2026-04-20 07:53 | 41.13632 | 38.23408 | 37095 ft | 471 kts | 98° |
| 2026-04-20 07:54 | 41.12908 | 38.32054 | 37086 ft | 471 kts | 98° |
| 2026-04-20 07:54 | 41.12188 | 38.40698 | 37084 ft | 471 kts | 98° |
| 2026-04-20 07:55 | 41.11476 | 38.49292 | 37087 ft | 472 kts | 98° |
| 2026-04-20 07:55 | 41.10749 | 38.57949 | 37087 ft | 472 kts | 99° |
| 2026-04-20 07:56 | 41.10006 | 38.66604 | 37090 ft | 472 kts | 99° |
| 2026-04-20 07:56 | 41.09247 | 38.75265 | 37101 ft | 472 kts | 99° |
| 2026-04-20 07:57 | 41.08467 | 38.83913 | 37104 ft | 473 kts | 99° |
| 2026-04-20 07:57 | 41.07673 | 38.92570 | 37091 ft | 473 kts | 99° |
| 2026-04-20 07:58 | 41.06881 | 39.01236 | 37092 ft | 474 kts | 99° |
| 2026-04-20 07:58 | 41.06078 | 39.09898 | 37093 ft | 474 kts | 100° |
| 2026-04-20 07:59 | 41.05356 | 39.17659 | 37094 ft | 474 kts | 99° |
| 2026-04-20 07:59 | 41.04569 | 39.26283 | 37093 ft | 475 kts | 99° |
| 2026-04-20 08:00 | 41.03772 | 39.34959 | 37094 ft | 475 kts | 100° |
| 2026-04-20 08:00 | 41.02957 | 39.43640 | 37100 ft | 475 kts | 100° |
| 2026-04-20 08:01 | 41.02140 | 39.52327 | 37114 ft | 475 kts | 100° |
| 2026-04-20 08:01 | 41.01319 | 39.61006 | 37126 ft | 475 kts | 100° |
| 2026-04-20 08:02 | 41.00491 | 39.69679 | 37111 ft | 475 kts | 100° |
| 2026-04-20 08:02 | 40.99803 | 39.78397 | 37115 ft | 478 kts | 92° |
| 2026-04-20 08:03 | 41.00675 | 39.87142 | 37109 ft | 482 kts | 81° |
| 2026-04-20 08:03 | 41.01995 | 39.95804 | 37104 ft | 482 kts | 81° |
| 2026-04-20 08:04 | 41.03286 | 40.04526 | 37101 ft | 482 kts | 81° |
| 2026-04-20 08:04 | 41.04565 | 40.13258 | 37079 ft | 483 kts | 81° |
| 2026-04-20 08:05 | 41.05855 | 40.21989 | 37076 ft | 483 kts | 81° |
| 2026-04-20 08:05 | 41.07139 | 40.30729 | 37077 ft | 483 kts | 81° |
| 2026-04-20 08:06 | 41.08417 | 40.39493 | 37079 ft | 484 kts | 81° |
| 2026-04-20 08:06 | 41.09688 | 40.48250 | 37091 ft | 484 kts | 82° |
| 2026-04-20 08:07 | 41.10944 | 40.56965 | 37087 ft | 484 kts | 81° |
| 2026-04-20 08:07 | 41.12207 | 40.65735 | 37089 ft | 484 kts | 82° |
| 2026-04-20 08:08 | 41.13455 | 40.74506 | 37080 ft | 484 kts | 82° |
| 2026-04-20 08:08 | 41.14690 | 40.83290 | 37077 ft | 485 kts | 82° |
| 2026-04-20 08:09 | 41.15928 | 40.92098 | 37078 ft | 485 kts | 82° |
| 2026-04-20 08:09 | 41.17171 | 41.00899 | 37083 ft | 485 kts | 82° |
| 2026-04-20 08:10 | 41.18407 | 41.09708 | 37082 ft | 485 kts | 82° |
| 2026-04-20 08:10 | 41.19619 | 41.18477 | 37081 ft | 485 kts | 82° |
| 2026-04-20 08:11 | 41.20823 | 41.27278 | 37082 ft | 485 kts | 82° |
| 2026-04-20 08:11 | 41.22037 | 41.36111 | 37060 ft | 485 kts | 82° |
| 2026-04-20 08:12 | 41.23246 | 41.44938 | 37063 ft | 486 kts | 82° |
| 2026-04-20 08:12 | 41.24441 | 41.53781 | 37069 ft | 486 kts | 83° |
| 2026-04-20 08:13 | 41.25621 | 41.62578 | 37068 ft | 486 kts | 82° |
| 2026-04-20 08:13 | 41.26810 | 41.71436 | 37067 ft | 486 kts | 82° |
| 2026-04-20 08:14 | 41.27982 | 41.80288 | 37070 ft | 487 kts | 83° |
| 2026-04-20 08:14 | 41.29149 | 41.89165 | 37042 ft | 487 kts | 83° |
| 2026-04-20 08:15 | 41.30317 | 41.98024 | 37056 ft | 486 kts | 83° |
| 2026-04-20 08:15 | 41.31465 | 42.06889 | 37061 ft | 486 kts | 83° |
| 2026-04-20 08:16 | 41.32601 | 42.15704 | 37051 ft | 486 kts | 83° |
| 2026-04-20 08:16 | 41.33719 | 42.24509 | 37043 ft | 486 kts | 83° |
| 2026-04-20 08:17 | 41.34840 | 42.33382 | 37042 ft | 486 kts | 83° |
| 2026-04-20 08:17 | 41.35961 | 42.42255 | 37024 ft | 486 kts | 83° |
| 2026-04-20 08:18 | 41.37076 | 42.51154 | 37012 ft | 487 kts | 83° |
| 2026-04-20 08:18 | 41.38180 | 42.60049 | 37000 ft | 487 kts | 83° |
| 2026-04-20 08:19 | 41.39279 | 42.68952 | 37007 ft | 487 kts | 83° |
| 2026-04-20 08:19 | 41.40372 | 42.77813 | 37010 ft | 488 kts | 83° |
| 2026-04-20 08:20 | 41.41463 | 42.86728 | 37003 ft | 488 kts | 84° |
| 2026-04-20 08:20 | 41.42540 | 42.95656 | 37005 ft | 488 kts | 84° |
| 2026-04-20 08:21 | 41.43608 | 43.04589 | 37004 ft | 488 kts | 84° |
| 2026-04-20 08:21 | 41.44674 | 43.13519 | 36987 ft | 488 kts | 84° |
| 2026-04-20 08:22 | 41.45740 | 43.22449 | 36994 ft | 488 kts | 84° |
| 2026-04-20 08:22 | 41.46805 | 43.31387 | 36994 ft | 488 kts | 84° |
| 2026-04-20 08:23 | 41.47844 | 43.40274 | 36997 ft | 488 kts | 84° |
| 2026-04-20 08:23 | 41.48875 | 43.49226 | 37000 ft | 488 kts | 84° |
| 2026-04-20 08:24 | 41.49904 | 43.58172 | 36990 ft | 488 kts | 84° |
| 2026-04-20 08:24 | 41.50930 | 43.67126 | 36968 ft | 488 kts | 84° |
| 2026-04-20 08:25 | 41.51444 | 43.71608 | 36488 ft | 491 kts | 84° |
| 2026-04-20 08:25 | 41.51963 | 43.76148 | 35468 ft | 497 kts | 85° |
| 2026-04-20 08:25 | 41.52482 | 43.80730 | 34613 ft | 499 kts | 85° |
| 2026-04-20 08:25 | 41.52998 | 43.85311 | 33839 ft | 499 kts | 86° |
| 2026-04-20 08:26 | 41.53504 | 43.89839 | 32919 ft | 499 kts | 85° |
| 2026-04-20 08:26 | 41.54017 | 43.94419 | 31956 ft | 499 kts | 85° |
| 2026-04-20 08:26 | 41.54537 | 43.99065 | 30997 ft | 500 kts | 85° |
| 2026-04-20 08:26 | 41.55042 | 44.03604 | 30037 ft | 500 kts | 85° |
| 2026-04-20 08:27 | 41.55552 | 44.08187 | 29106 ft | 497 kts | 85° |
| 2026-04-20 08:27 | 41.56055 | 44.12735 | 28126 ft | 495 kts | 85° |
| 2026-04-20 08:27 | 41.56554 | 44.17265 | 27290 ft | 490 kts | 85° |
| 2026-04-20 08:27 | 41.56971 | 44.21742 | 26507 ft | 482 kts | 91° |
| 2026-04-20 08:28 | 41.56806 | 44.26145 | 25745 ft | 469 kts | 103° |
| 2026-04-20 08:28 | 41.56247 | 44.30407 | 24990 ft | 463 kts | 104° |
| 2026-04-20 08:28 | 41.55689 | 44.34630 | 24267 ft | 459 kts | 103° |
| 2026-04-20 08:28 | 41.55141 | 44.38806 | 23578 ft | 455 kts | 103° |
| 2026-04-20 08:29 | 41.54598 | 44.42948 | 22791 ft | 451 kts | 103° |
| 2026-04-20 08:29 | 41.54062 | 44.47046 | 22046 ft | 446 kts | 103° |
| 2026-04-20 08:29 | 41.53532 | 44.51113 | 21325 ft | 442 kts | 103° |
| 2026-04-20 08:29 | 41.53005 | 44.55145 | 20636 ft | 438 kts | 103° |
| 2026-04-20 08:30 | 41.52481 | 44.59139 | 19969 ft | 435 kts | 103° |
| 2026-04-20 08:30 | 41.51956 | 44.63093 | 19313 ft | 431 kts | 103° |
| 2026-04-20 08:30 | 41.51433 | 44.67017 | 18664 ft | 428 kts | 103° |
| 2026-04-20 08:30 | 41.50913 | 44.70908 | 18079 ft | 423 kts | 103° |
| 2026-04-20 08:31 | 41.50406 | 44.74693 | 17925 ft | 406 kts | 103° |
| 2026-04-20 08:31 | 41.50082 | 44.77122 | 17831 ft | 395 kts | 103° |
| 2026-04-20 08:31 | 41.49616 | 44.80602 | 17690 ft | 368 kts | 103° |
| 2026-04-20 08:31 | 41.49038 | 44.84913 | 17156 ft | 348 kts | 103° |
| 2026-04-20 08:32 | 41.48610 | 44.88065 | 16526 ft | 343 kts | 103° |
| 2026-04-20 08:32 | 41.48321 | 44.90171 | 16070 ft | 340 kts | 103° |
| 2026-04-20 08:32 | 41.47906 | 44.93255 | 15491 ft | 336 kts | 100° |
| 2026-04-20 08:32 | 41.47914 | 44.96316 | 15099 ft | 328 kts | 82° |
| 2026-04-20 08:33 | 41.48514 | 44.99295 | 14093 ft | 340 kts | 73° |
| 2026-04-20 08:33 | 41.49954 | 45.05548 | 11401 ft | 365 kts | 73° |
| 2026-04-20 08:33 | 41.50756 | 45.08811 | 9906 ft | 374 kts | 66° |
| 2026-04-20 08:34 | 41.52042 | 45.11861 | 8216 ft | 381 kts | 60° |
| 2026-04-20 08:34 | 41.52857 | 45.15148 | 7543 ft | 363 kts | 83° |
| 2026-04-20 08:34 | 41.52694 | 45.18351 | 7324 ft | 333 kts | 106° |
| 2026-04-20 08:34 | 41.51791 | 45.21046 | 7197 ft | 305 kts | 119° |
| 2026-04-20 08:35 | 41.50788 | 45.23409 | 7077 ft | 281 kts | 122° |
| 2026-04-20 08:35 | 41.49511 | 45.25197 | 6943 ft | 256 kts | 150° |
| 2026-04-20 08:35 | 41.47911 | 45.26017 | 6812 ft | 242 kts | 175° |
| 2026-04-20 08:35 | 41.46301 | 45.25939 | 6675 ft | 230 kts | 198° |
| 2026-04-20 08:36 | 41.44919 | 45.25052 | 6537 ft | 214 kts | 230° |
| 2026-04-20 08:36 | 41.44363 | 45.23380 | 6456 ft | 191 kts | 275° |
| 2026-04-20 08:36 | 41.44883 | 45.21897 | 6345 ft | 178 kts | 323° |
| 2026-04-20 08:36 | 41.46018 | 45.21224 | 6288 ft | 180 kts | 335° |
| 2026-04-20 08:37 | 41.46984 | 45.20201 | 6221 ft | 180 kts | 313° |
| 2026-04-20 08:37 | 41.47885 | 45.19024 | 5880 ft | 182 kts | 317° |
| 2026-04-20 08:37 | 41.48795 | 45.17893 | 5661 ft | 176 kts | 316° |
| 2026-04-20 08:37 | 41.49684 | 45.16782 | 5518 ft | 175 kts | 316° |
| 2026-04-20 08:38 | 41.50569 | 45.15675 | 5441 ft | 174 kts | 316° |
| 2026-04-20 08:38 | 41.51446 | 45.14575 | 5379 ft | 174 kts | 316° |
| 2026-04-20 08:38 | 41.52323 | 45.13475 | 5199 ft | 173 kts | 316° |
| 2026-04-20 08:38 | 41.53198 | 45.12378 | 4983 ft | 171 kts | 316° |
| 2026-04-20 08:39 | 41.54057 | 45.11300 | 4759 ft | 166 kts | 316° |
| 2026-04-20 08:39 | 41.54871 | 45.10278 | 4546 ft | 160 kts | 316° |
| 2026-04-20 08:39 | 41.55671 | 45.09272 | 4326 ft | 155 kts | 316° |
| 2026-04-20 08:39 | 41.56442 | 45.08303 | 4119 ft | 150 kts | 316° |
| 2026-04-20 08:40 | 41.57192 | 45.07361 | 3916 ft | 146 kts | 316° |
| 2026-04-20 08:40 | 41.57915 | 45.06450 | 3741 ft | 138 kts | 316° |
| 2026-04-20 08:40 | 41.58603 | 45.05584 | 3546 ft | 133 kts | 317° |
| 2026-04-20 08:40 | 41.59276 | 45.04738 | 3360 ft | 132 kts | 317° |
| 2026-04-20 08:41 | 41.59943 | 45.03898 | 3158 ft | 130 kts | 316° |
| 2026-04-20 08:41 | 41.60600 | 45.03071 | 2969 ft | 129 kts | 317° |
| 2026-04-20 08:41 | 41.61244 | 45.02260 | 2789 ft | 129 kts | 317° |
| 2026-04-20 08:41 | 41.61898 | 45.01437 | 2615 ft | 129 kts | 316° |
| 2026-04-20 08:42 | 41.62551 | 45.00613 | 2434 ft | 129 kts | 316° |
| 2026-04-20 08:42 | 41.63184 | 44.99816 | 2282 ft | 128 kts | 316° |
| 2026-04-20 08:42 | 41.63834 | 44.98996 | 2111 ft | 128 kts | 317° |
| 2026-04-20 08:42 | 41.64476 | 44.98173 | 1929 ft | 128 kts | 316° |
| 2026-04-20 08:43 | 41.65114 | 44.97359 | 1745 ft | 125 kts | 317° |
| 2026-04-20 08:43 | 41.65752 | 44.96569 | 1604 ft | 125 kts | 314° |
| 2026-04-20 08:43 | 41.66361 | 44.95804 | 1525 ft | 108 kts | 316° |
| 2026-04-20 08:43 | 41.66644 | 44.95451 | 1521 ft | 84 kts | 316° |
| 2026-04-20 08:44 | 41.66909 | 44.95121 | 1523 ft | 47 kts | 317° |
| 2026-04-20 08:44 | 41.67065 | 44.94945 | 1523 ft | 20 kts | 320° |
| 2026-04-20 08:44 | 41.67165 | 44.94810 | 1520 ft | 21 kts | 314° |
| 2026-04-20 08:44 | 41.67264 | 44.94674 | 1525 ft | 20 kts | 314° |
| 2026-04-20 08:45 | 41.67371 | 44.94539 | 1524 ft | 23 kts | 320° |
| 2026-04-20 08:45 | 41.67474 | 44.94425 | 1522 ft | 13 kts | 330° |
| 2026-04-20 08:45 | 41.67541 | 44.94480 | 1523 ft | 12 kts | 69° |
| 2026-04-20 08:45 | 41.67572 | 44.94600 | 1526 ft | 20 kts | 71° |
| 2026-04-20 08:46 | 41.67617 | 44.94783 | 1522 ft | 20 kts | 71° |
| 2026-04-20 08:46 | 41.67660 | 44.94952 | 1525 ft | 19 kts | 71° |
| 2026-04-20 08:46 | 41.67638 | 44.95080 | 1526 ft | 14 kts | 136° |
| 2026-04-20 08:46 | 41.67575 | 44.95167 | 1522 ft | 12 kts | 133° |
| 2026-04-20 08:47 | 41.67520 | 44.95249 | 1523 ft | 11 kts | 130° |
| 2026-04-20 08:47 | 41.67471 | 44.95324 | 1521 ft | 11 kts | 131° |
| 2026-04-20 08:47 | 41.67422 | 44.95402 | 1521 ft | 12 kts | 131° |
| 2026-04-20 08:47 | 41.67343 | 44.95516 | 1522 ft | 20 kts | 134° |
| 2026-04-20 08:48 | 41.67250 | 44.95646 | 1520 ft | 19 kts | 134° |
| 2026-04-20 08:48 | 41.67163 | 44.95768 | 1525 ft | 18 kts | 134° |
| 2026-04-20 08:48 | 41.67081 | 44.95881 | 1524 ft | 16 kts | 126° |
| 2026-04-20 08:48 | 41.67021 | 44.95997 | 1523 ft | 15 kts | 134° |
| 2026-04-20 08:49 | 41.66953 | 44.96092 | 1521 ft | 13 kts | 132° |
| 2026-04-20 08:49 | 41.66897 | 44.96181 | 1523 ft | 12 kts | 126° |
| 2026-04-20 08:49 | 41.66845 | 44.96261 | 1523 ft | 11 kts | 134° |
| 2026-04-20 08:49 | 41.66841 | 44.96266 | 1523 ft | 0 kts | 134° |
| 2026-04-20 08:51 | 41.66811 | 44.96311 | 1522 ft | 11 kts | 118° |
| 2026-04-20 08:51 | 41.66841 | 44.96367 | 1521 ft | 7 kts | 44° |
| 2026-04-20 08:52 | 41.66863 | 44.96395 | 1522 ft | 0 kts | 44° |
| 2026-04-20 08:52 | 41.66864 | 44.96396 | 1522 ft | 0 kts | 44° |